ROMMA est une association bénévole à but non lucratif. Votre soutien est indispensable : ADHERER à ROMMA ou FAIRE un DON

Chélieu - (38, Isère)

Terres Froides (550 m)   Longitude: 5° 28' 48.00" E   Latitude: 45° 31' 02.39"N Station partenaire n°44
 

Détail journalier du     <<     >>

Température Precipitation Humidité Pression Vent Dir Rafale Dir. rafale
Heure (°C) (mm) (%) (hPa) (km/h) (km/h)
01:00 14.908110187S26OSO
02:00 14.7081101811SO29S
03:00 13.908310186SO23OSO
04:00 13.808810181OSO10N
05:00 13.708810174S16OSO
06:00 14.108710178SSO24S
07:00 13.808710175S23SO
08:00 13.708710176SSO23OSO
09:00 14.508510178SO26SO
10:00 15.308210185SSE23SO
11:00 16.307810189S29S
12:00 18.407210189S32OSO
13:00 20.206810188SSO24OSO
14:00 21.406310177SO23SO
15:00 21.705810179SSO27S
16:00 21.6058101611SO29SSO
17:00 20.8061101611SO27SO
18:00 20.006310167OSO23OSO
19:00 17.506910164SO15OSO
20:00 15.707510172S11SSO
21:00 14.7079101708OSO
22:00 14.808110182S11SSO
23:00 14.908210182SSO15OSO
minuit 15.108310183S15S

Graphique du 13-10-2019

 

Serveur OMMA